Time;durP1;ratioP1;P1;durP2;ratioP2;P2;SDS_P1;SDS_P2;PMS_P1;PMS_P2;Temp;Humidity;BMP_temperature;BMP_pressure;BME280_temperature;BME280_humidity;BME280_pressure;Samples;Min_cycle;Max_cycle;Signal;HPM_P1;HPM_P2
2022/06/30 00:00:42;;;;;;;15.82;12.43;;;;;;;17.96;100.00;-25572.56;5094475;28;20131;-77
2022/06/30 00:03:08;;;;;;;16.63;13.10;;;;;;;17.87;100.00;-25570.22;5071255;28;20020;-78
2022/06/30 00:05:33;;;;;;;16.38;13.73;;;;;;;17.85;100.00;-25569.50;5068413;28;20084;-80
2022/06/30 00:07:59;;;;;;;18.23;13.38;;;;;;;17.88;100.00;-25570.38;5094039;28;20091;-79
2022/06/30 00:10:24;;;;;;;18.17;13.48;;;;;;;17.86;100.00;-25569.94;5070113;28;20036;-80
2022/06/30 00:12:50;;;;;;;17.98;13.18;;;;;;;17.90;100.00;-25570.97;5067475;28;20120;-81
2022/06/30 00:15:15;;;;;;;16.40;13.00;;;;;;;17.95;100.00;-25572.41;5084977;28;20167;-77
2022/06/30 00:17:41;;;;;;;14.55;12.55;;;;;;;17.99;100.00;-25573.41;5081531;28;20473;-80
2022/06/30 00:20:07;;;;;;;17.25;13.20;;;;;;;17.96;100.00;-25572.69;5072804;28;20028;-79
2022/06/30 00:22:32;;;;;;;18.13;14.20;;;;;;;17.98;100.00;-25573.28;5070186;28;20032;-81
2022/06/30 00:24:58;;;;;;;17.15;13.50;;;;;;;18.02;100.00;-25574.28;5082886;28;20020;-80
2022/06/30 00:27:24;;;;;;;16.15;12.65;;;;;;;18.01;100.00;-25574.16;5070348;28;20020;-81
2022/06/30 00:29:50;;;;;;;16.77;13.45;;;;;;;18.01;100.00;-25574.00;5069971;28;20036;-81
2022/06/30 00:32:16;;;;;;;16.60;13.57;;;;;;;18.02;100.00;-25574.28;5074323;28;20008;-82
2022/06/30 00:34:42;;;;;;;17.90;14.65;;;;;;;17.96;100.00;-25572.56;5079905;28;20025;-78
2022/06/30 00:37:07;;;;;;;18.73;14.02;;;;;;;17.93;100.00;-25571.81;5074482;28;20054;-78
2022/06/30 00:39:33;;;;;;;18.38;13.02;;;;;;;17.92;100.00;-25571.53;5057208;28;20070;-78
2022/06/30 00:41:59;;;;;;;17.00;13.38;;;;;;;17.75;100.00;-25566.91;5067856;28;20052;-78
2022/06/30 00:44:25;;;;;;;18.17;13.40;;;;;;;17.86;100.00;-25569.78;5067339;28;20035;-78
2022/06/30 00:46:50;;;;;;;20.92;14.90;;;;;;;17.82;100.00;-25568.78;5057757;28;20029;-79
2022/06/30 00:49:18;;;;;;;19.02;14.70;;;;;;;17.89;100.00;-25570.81;5056512;28;20020;-79
2022/06/30 00:51:43;;;;;;;21.35;16.13;;;;;;;17.94;100.00;-25572.13;5063246;28;20091;-79
2022/06/30 00:54:11;;;;;;;17.90;15.57;;;;;;;17.99;100.00;-25573.41;5061619;28;20029;-79
2022/06/30 00:56:40;;;;;;;19.42;15.93;;;;;;;18.02;100.00;-25574.28;5085286;28;20024;-77
2022/06/30 00:59:07;;;;;;;18.70;16.10;;;;;;;18.06;100.00;-25575.44;5068453;28;20047;-78
2022/06/30 01:01:33;;;;;;;19.20;16.20;;;;;;;18.04;100.00;-25574.88;5066436;28;20051;-77
2022/06/30 01:04:01;;;;;;;21.10;16.60;;;;;;;18.05;100.00;-25575.16;5056295;28;20024;-78
2022/06/30 01:06:28;;;;;;;22.17;17.75;;;;;;;18.02;100.00;-25574.28;5075006;28;20107;-79
2022/06/30 01:08:53;;;;;;;19.83;17.52;;;;;;;17.96;100.00;-25572.56;5062121;28;20023;-78
2022/06/30 01:14:04;;;;;;;19.73;17.08;;;;;;;17.96;100.00;-25572.56;5082139;28;20044;-77
2022/06/30 01:16:30;;;;;;;19.90;17.75;;;;;;;17.91;100.00;-25571.41;5058521;28;20123;-78
2022/06/30 01:18:55;;;;;;;20.92;18.48;;;;;;;17.93;100.00;-25571.97;5055261;28;20020;-78
2022/06/30 01:21:21;;;;;;;21.88;18.08;;;;;;;17.89;100.00;-25570.66;5054897;28;20115;-79
2022/06/30 01:23:46;;;;;;;23.42;18.60;;;;;;;17.91;100.00;-25571.25;5054582;28;20036;-78
2022/06/30 01:26:12;;;;;;;20.80;18.00;;;;;;;17.91;100.00;-25571.41;5055222;28;20188;-78
2022/06/30 01:28:37;;;;;;;21.52;18.85;;;;;;;17.64;100.00;-25563.56;5054424;28;20021;-76
2022/06/30 01:31:03;;;;;;;22.52;19.95;;;;;;;17.53;100.00;-25560.66;5074365;28;20393;-80
2022/06/30 01:33:29;;;;;;;21.30;18.20;;;;;;;17.54;100.00;-25560.97;5058151;28;20040;-78
2022/06/30 01:35:56;;;;;;;20.35;16.42;;;;;;;17.51;100.00;-25559.94;5058599;28;20020;-76
2022/06/30 01:38:21;;;;;;;20.15;16.55;;;;;;;17.59;100.00;-25562.41;5058827;28;20372;-77
2022/06/30 01:40:47;;;;;;;19.85;16.17;;;;;;;17.69;100.00;-25565.16;5076189;28;20032;-77
2022/06/30 01:43:15;;;;;;;20.05;15.48;;;;;;;17.70;100.00;-25565.44;5077458;28;20622;-78
2022/06/30 01:45:41;;;;;;;19.25;15.95;;;;;;;17.68;100.00;-25564.88;5078701;28;20085;-79
2022/06/30 01:48:08;;;;;;;21.42;16.85;;;;;;;17.68;100.00;-25564.72;5071239;28;20021;-80
2022/06/30 01:50:34;;;;;;;19.83;14.93;;;;;;;17.64;100.00;-25563.56;5057587;28;20468;-76
2022/06/30 01:53:04;;;;;;;19.10;16.17;;;;;;;17.70;100.00;-25565.44;5064263;28;20020;-77
2022/06/30 01:55:29;;;;;;;18.77;15.82;;;;;;;17.71;100.00;-25565.59;5058734;28;20035;-78
2022/06/30 01:57:55;;;;;;;18.73;14.98;;;;;;;17.70;100.00;-25565.31;5059939;28;20021;-76
2022/06/30 02:00:24;;;;;;;20.77;15.75;;;;;;;17.61;100.00;-25562.84;5075702;28;20112;-78
2022/06/30 02:02:53;;;;;;;20.77;16.25;;;;;;;17.54;100.00;-25560.97;5067235;28;20119;-77
2022/06/30 02:05:19;;;;;;;19.40;14.90;;;;;;;17.40;100.00;-25556.91;5058957;28;20041;-80
2022/06/30 02:07:45;;;;;;;21.90;15.82;;;;;;;17.35;100.00;-25555.59;5059869;28;20032;-77
2022/06/30 02:10:14;;;;;;;19.95;16.58;;;;;;;17.38;100.00;-25556.47;5093721;28;20028;-76
2022/06/30 02:12:46;;;;;;;20.58;15.27;;;;;;;17.30;100.00;-25554.00;5054310;28;20033;-79
2022/06/30 02:15:21;;;;;;;21.00;15.18;;;;;;;17.30;100.00;-25554.00;5055771;28;20025;-77
2022/06/30 02:17:52;;;;;;;19.58;15.98;;;;;;;17.31;100.00;-25554.28;5070582;28;20103;-77
2022/06/30 02:20:23;;;;;;;20.23;16.13;;;;;;;17.31;100.00;-25554.28;5065632;28;20079;-78
2022/06/30 02:22:58;;;;;;;19.08;16.60;;;;;;;17.26;100.00;-25553.00;5051521;28;20119;-78
2022/06/30 02:25:28;;;;;;;23.20;16.42;;;;;;;17.27;100.00;-25553.28;5065023;28;20025;-78
2022/06/30 02:27:53;;;;;;;;;;;;;;;17.18;100.00;-25550.81;5083722;28;20021;-81
2022/06/30 02:30:19;;;;;;;22.48;16.30;;;;;;;17.25;100.00;-25552.56;5075342;28;19920;-79
2022/06/30 02:32:47;;;;;;;21.58;16.10;;;;;;;17.21;100.00;-25551.53;5062708;28;20064;-78
2022/06/30 02:35:13;;;;;;;23.77;17.02;;;;;;;17.21;100.00;-25551.53;5062547;28;20021;-77
2022/06/30 02:37:38;;;;;;;19.52;16.63;;;;;;;17.21;100.00;-25551.53;5062513;28;20163;-78
2022/06/30 02:40:05;;;;;;;20.45;16.35;;;;;;;17.19;100.00;-25551.09;5064046;28;20100;-78
2022/06/30 02:42:30;;;;;;;19.77;16.05;;;;;;;17.14;100.00;-25549.66;5057083;28;20036;-79
2022/06/30 02:44:56;;;;;;;19.65;16.25;;;;;;;17.11;100.00;-25548.78;5076319;28;20017;-79
2022/06/30 02:47:28;;;;;;;37.65;17.85;;;;;;;17.07;100.00;-25547.63;5063655;28;20028;-79
2022/06/30 02:49:53;;;;;;;24.38;18.02;;;;;;;17.02;100.00;-25546.19;5095744;28;20036;-79
2022/06/30 02:52:18;;;;;;;23.17;17.13;;;;;;;16.95;100.00;-25544.28;5068393;28;20016;-78
2022/06/30 02:54:47;;;;;;;22.55;17.42;;;;;;;16.98;100.00;-25545.16;5080268;28;20048;-79
2022/06/30 02:57:12;;;;;;;20.08;16.98;;;;;;;16.92;100.00;-25543.28;5070987;28;20041;-83
2022/06/30 02:59:38;;;;;;;21.00;16.83;;;;;;;16.91;100.00;-25543.13;5060838;28;20362;-82
2022/06/30 03:02:04;;;;;;;21.48;17.55;;;;;;;16.85;100.00;-25541.38;5064351;28;20036;-82
2022/06/30 03:04:29;;;;;;;24.92;17.77;;;;;;;16.78;100.00;-25539.50;5073939;28;20044;-79
2022/06/30 03:06:55;;;;;;;22.50;19.40;;;;;;;16.72;100.00;-25537.59;5069785;28;20029;-81
2022/06/30 03:09:21;;;;;;;25.10;17.85;;;;;;;16.75;100.00;-25538.47;5065287;28;20028;-81
2022/06/30 03:11:47;;;;;;;25.25;18.17;;;;;;;16.75;100.00;-25538.47;5060518;28;20543;-79
2022/06/30 03:14:14;;;;;;;25.85;18.10;;;;;;;16.74;100.00;-25538.19;5068762;28;20412;-78
2022/06/30 03:16:40;;;;;;;28.90;19.15;;;;;;;16.72;100.00;-25537.75;5065996;28;20024;-78
2022/06/30 03:19:05;;;;;;;28.83;20.42;;;;;;;16.79;100.00;-25539.63;5079052;28;20046;-78
2022/06/30 03:21:31;;;;;;;24.63;20.23;;;;;;;16.76;100.00;-25538.78;5070828;28;20032;-78
2022/06/30 03:23:58;;;;;;;22.13;18.40;;;;;;;16.77;100.00;-25539.22;5074343;28;20040;-79
2022/06/30 03:26:23;;;;;;;22.30;17.98;;;;;;;16.80;100.00;-25540.06;5075315;28;20028;-79
2022/06/30 03:28:49;;;;;;;23.08;18.27;;;;;;;16.79;100.00;-25539.78;5056510;28;20036;-78
2022/06/30 03:31:14;;;;;;;24.50;18.50;;;;;;;16.83;100.00;-25540.81;5065240;28;20036;-79
2022/06/30 03:33:42;;;;;;;23.95;18.80;;;;;;;16.81;100.00;-25540.38;5055846;28;20055;-77
2022/06/30 03:36:07;;;;;;;21.60;18.52;;;;;;;16.88;100.00;-25542.13;5074106;28;20032;-78
2022/06/30 03:38:33;;;;;;;24.95;18.38;;;;;;;16.90;100.00;-25542.84;5075138;28;20024;-79
2022/06/30 03:40:58;;;;;;;27.77;18.35;;;;;;;16.95;100.00;-25544.28;5091018;28;20036;-77
2022/06/30 03:43:24;;;;;;;23.05;16.33;;;;;;;16.99;100.00;-25545.44;5068486;28;20019;-77
2022/06/30 03:45:51;;;;;;;21.58;17.13;;;;;;;17.02;100.00;-25546.19;5075969;28;20123;-77
2022/06/30 03:48:16;;;;;;;21.25;16.88;;;;;;;17.14;100.00;-25549.66;5069285;28;20017;-76
2022/06/30 03:50:42;;;;;;;19.70;16.40;;;;;;;17.16;100.00;-25550.09;5054764;28;20494;-77
2022/06/30 03:53:07;;;;;;;22.35;16.35;;;;;;;17.27;100.00;-25553.13;5080820;28;20481;-77
2022/06/30 03:55:33;;;;;;;21.85;15.27;;;;;;;17.35;100.00;-25555.44;5062426;28;20039;-82
2022/06/30 03:58:00;;;;;;;19.25;15.63;;;;;;;17.37;100.00;-25556.03;5078140;28;20089;-78
2022/06/30 04:00:25;;;;;;;20.90;15.07;;;;;;;17.53;100.00;-25560.53;5066271;28;20038;-81
2022/06/30 04:02:51;;;;;;;23.83;15.30;;;;;;;18.06;100.00;-25575.44;5073134;28;20096;-79
2022/06/30 04:05:16;;;;;;;18.63;14.25;;;;;;;18.75;100.00;-25594.81;5101390;28;20021;-78
2022/06/30 04:07:44;;;;;;;17.52;13.68;;;;;;;19.21;100.00;-25607.69;5070179;28;20218;-79
2022/06/30 04:10:12;;;;;;;18.05;12.05;;;;;;;19.69;100.00;-25621.41;5067674;28;20051;-80
2022/06/30 04:12:37;;;;;;;15.95;12.00;;;;;;;20.22;100.00;-25636.28;5083920;28;20053;-78
2022/06/30 04:15:04;;;;;;;15.80;10.80;;;;;;;20.77;100.00;-25651.53;5092155;28;20059;-83
2022/06/30 04:17:29;;;;;;;14.77;9.43;;;;;;;21.26;100.00;-15027.63;5094628;28;20031;-76
2022/06/30 04:19:54;;;;;;;13.18;9.32;;;;;;;21.69;100.00;-684.25;5063470;28;20020;-82
2022/06/30 04:22:20;;;;;;;13.57;8.68;;;;;;;22.05;100.00;17424.88;5055714;28;20039;-85
2022/06/30 04:24:48;;;;;;;9.82;7.40;;;;;;;21.84;100.00;42018.28;5074635;28;20119;-83
2022/06/30 04:27:14;;;;;;;11.60;6.70;;;;;;;21.24;100.00;51439.28;5068403;28;20025;-81
2022/06/30 04:29:39;;;;;;;11.43;7.38;;;;;;;22.01;100.00;63392.84;5078862;28;20027;-83
2022/06/30 04:34:50;;;;;;;7.72;5.32;;;;;;;22.99;100.00;148497.03;5075983;28;20051;-81
2022/06/30 04:37:16;;;;;;;8.65;4.80;;;;;;;23.49;100.00;148622.84;5070154;28;20020;-79
2022/06/30 04:39:41;;;;;;;5.72;3.80;;;;;;;23.23;100.00;148558.69;5098397;28;20485;-86
2022/06/30 04:42:07;;;;;;;7.90;4.00;;;;;;;24.01;100.00;148753.88;5063394;28;20024;-85
2022/06/30 04:44:32;;;;;;;5.68;3.25;;;;;;;23.64;100.00;148661.38;5078188;28;20028;-84
2022/06/30 04:46:58;;;;;;;7.45;3.20;;;;;;;23.54;100.00;148635.72;5076921;28;20052;-87
2022/06/30 04:49:23;;;;;;;5.00;2.90;;;;;;;23.88;100.00;148720.50;5073835;28;20048;-85
2022/06/30 04:51:50;;;;;;;7.30;2.97;;;;;;;24.29;100.00;148823.22;5078248;28;20020;-84
2022/06/30 04:54:17;;;;;;;5.43;3.40;;;;;;;25.06;100.00;149016.00;5065583;28;20039;-84
2022/06/30 04:56:42;;;;;;;6.20;3.35;;;;;;;24.59;100.00;148897.78;5076099;28;20385;-82
2022/06/30 04:59:08;;;;;;;6.88;3.90;;;;;;;24.84;100.00;148960.72;5063455;28;20060;-80
2022/06/30 05:01:33;;;;;;;7.55;3.75;;;;;;;25.41;100.00;149103.41;5059798;28;20052;-79
2022/06/30 05:03:59;;;;;;;8.98;4.28;;;;;;;25.12;100.00;149028.84;5059258;28;20025;-82
2022/06/30 05:06:25;;;;;;;9.02;4.70;;;;;;;25.80;100.00;149201.09;5055872;28;20115;-78
2022/06/30 05:08:50;;;;;;;7.45;4.35;;;;;;;25.47;100.00;149117.56;5055200;28;20317;-79
2022/06/30 05:11:16;;;;;;;9.23;4.43;;;;;;;23.99;100.00;148748.75;5054694;28;20073;-81
2022/06/30 05:13:45;;;;;;;7.70;4.18;;;;;;;24.41;100.00;148851.47;5053713;28;20047;-78
2022/06/30 05:16:11;;;;;;;10.45;3.88;;;;;;;24.18;100.00;148796.25;5055411;28;20039;-80
2022/06/30 05:18:36;;;;;;;8.05;3.55;;;;;;;24.18;100.00;148794.97;5076103;28;20032;-79
2022/06/30 05:21:02;;;;;;;8.25;3.65;;;;;;;23.41;100.00;148602.31;5057113;28;20035;-81
2022/06/30 05:23:29;;;;;;;11.90;3.30;;;;;;;22.50;100.00;148375.16;5058056;28;20483;-80
2022/06/30 05:28:38;;;;;;;7.90;2.88;;;;;;;22.26;100.00;148314.78;5074298;28;20067;-84
2022/06/30 05:31:04;;;;;;;12.05;3.42;;;;;;;21.75;100.00;148189.13;5059236;28;20028;-86
2022/06/30 05:33:29;;;;;;;8.75;2.90;;;;;;;21.50;100.00;148127.59;5071898;28;20031;-78
2022/06/30 05:35:55;;;;;;;10.95;2.88;;;;;;;21.06;100.00;148017.28;5056859;28;20035;-79
2022/06/30 05:38:21;;;;;;;8.90;2.72;;;;;;;21.08;100.00;148022.38;5053938;28;20025;-77
2022/06/30 05:40:46;;;;;;;8.93;2.80;;;;;;;20.61;100.00;147904.47;5080391;28;20060;-81
2022/06/30 05:43:26;;;;;;;7.72;2.53;;;;;;;20.79;100.00;147949.38;5054172;28;20063;-79
2022/06/30 05:45:53;;;;;;;9.30;2.88;;;;;;;21.81;100.00;148204.53;5056195;28;20492;-85
2022/06/30 05:48:19;;;;;;;5.50;2.10;;;;;;;22.28;100.00;148319.91;5057066;28;20025;-79
2022/06/30 05:50:44;;;;;;;9.82;2.30;;;;;;;22.34;100.00;148335.34;5073471;28;20067;-84
2022/06/30 05:53:10;;;;;;;6.95;2.55;;;;;;;21.89;100.00;148223.72;5063438;28;20044;-80
2022/06/30 05:55:35;;;;;;;7.90;2.10;;;;;;;21.51;100.00;148128.84;5037603;28;20029;-83
2022/06/30 05:58:01;;;;;;;7.90;2.30;;;;;;;21.23;100.00;148059.56;5055375;28;20646;-78
2022/06/30 06:00:29;;;;;;;7.05;2.00;;;;;;;21.11;100.00;148030.06;5054995;28;20066;-81
2022/06/30 06:03:01;;;;;;;8.15;2.20;;;;;;;20.90;100.00;147977.56;5054251;28;20043;-84
2022/06/30 06:05:27;;;;;;;6.88;1.98;;;;;;;;;;5054087;28;20021;-80
2022/06/30 06:07:52;;;;;;;8.90;2.30;;;;;;;20.56;100.00;147892.94;5054193;28;20025;-79
2022/06/30 06:10:18;;;;;;;5.85;1.98;;;;;;;20.37;100.00;147845.53;5055194;28;20020;-81
2022/06/30 06:12:44;;;;;;;7.57;2.30;;;;;;;20.36;100.00;147842.97;5053739;28;20052;-85
2022/06/30 06:15:11;;;;;;;8.50;2.30;;;;;;;20.28;100.00;147822.47;5071769;28;20112;-81
2022/06/30 06:17:45;;;;;;;6.68;2.15;;;;;;;20.21;100.00;147804.53;5056143;28;20465;-78
2022/06/30 06:20:12;;;;;;;6.70;2.08;;;;;;;20.30;100.00;147827.59;5091314;28;20032;-80
2022/06/30 06:22:39;;;;;;;6.63;2.17;;;;;;;20.42;100.00;147858.34;5060581;28;20016;-85
2022/06/30 06:25:06;;;;;;;5.05;2.30;;;;;;;20.48;100.00;147872.44;5058414;28;20357;-84
2022/06/30 06:27:31;;;;;;;6.25;2.10;;;;;;;20.66;100.00;147917.31;5057904;28;20475;-84
2022/06/30 06:29:57;;;;;;;10.50;2.40;;;;;;;20.67;100.00;147919.88;5058676;28;20116;-85
2022/06/30 06:32:22;;;;;;;8.77;2.17;;;;;;;20.53;100.00;147883.97;5057925;28;20029;-86
2022/06/30 06:34:53;;;;;;;4.90;1.98;;;;;;;20.35;100.00;147840.38;5057819;28;20119;-85
2022/06/30 06:37:18;;;;;;;4.90;1.80;;;;;;;20.48;100.00;147872.44;5058486;28;20362;-84
2022/06/30 06:39:43;;;;;;;4.80;1.80;;;;;;;20.59;100.00;147899.34;5055667;28;20050;-81
2022/06/30 06:42:09;;;;;;;4.55;1.83;;;;;;;20.79;100.00;147949.38;5055772;28;20035;-82
2022/06/30 06:44:35;;;;;;;5.45;1.77;;;;;;;21.32;100.00;148081.38;5073623;28;20016;-80
2022/06/30 06:47:00;;;;;;;7.10;2.10;;;;;;;21.67;100.00;148169.91;5056131;28;20170;-79
2022/06/30 06:49:27;;;;;;;5.97;1.88;;;;;;;22.04;100.00;148262.19;5055740;28;20111;-79
2022/06/30 06:51:53;;;;;;;6.10;1.90;;;;;;;21.94;100.00;148235.25;5092956;28;20033;-81
2022/06/30 06:54:19;;;;;;;7.10;1.67;;;;;;;21.86;100.00;148216.03;5074539;28;20020;-81
2022/06/30 06:56:45;;;;;;;5.38;1.83;;;;;;;22.01;100.00;148253.22;5058402;28;20500;-80
2022/06/30 06:59:10;;;;;;;5.45;2.00;;;;;;;22.33;100.00;148332.81;5091257;28;20032;-80
2022/06/30 07:01:36;;;;;;;5.45;1.77;;;;;;;22.28;100.00;148319.91;5089758;28;20029;-82
2022/06/30 07:04:03;;;;;;;6.53;1.73;;;;;;;22.28;100.00;148321.22;5058432;28;20033;-80
2022/06/30 07:06:29;;;;;;;3.85;1.67;;;;;;;22.39;100.00;148348.22;5094212;28;20124;-82
2022/06/30 07:08:55;;;;;;;6.25;1.70;;;;;;;22.28;100.00;148321.22;5058318;28;20027;-81
2022/06/30 07:11:21;;;;;;;4.25;1.50;;;;;;;23.23;100.00;148558.69;5060831;28;20037;-82
2022/06/30 07:13:47;;;;;;;4.72;1.52;;;;;;;24.25;100.00;148811.66;5059354;28;20056;-82
2022/06/30 07:16:13;;;;;;;4.93;1.63;;;;;;;24.77;100.00;148941.50;5058028;28;20052;-83
2022/06/30 07:18:39;;;;;;;5.90;1.40;;;;;;;25.09;100.00;149022.41;5058584;28;20102;-81
2022/06/30 07:21:04;;;;;;;5.38;1.58;;;;;;;25.27;100.00;149067.41;5056577;28;20127;-79
2022/06/30 07:23:29;;;;;;;4.07;1.63;;;;;;;25.09;100.00;149022.41;5057113;28;20464;-80
2022/06/30 07:25:55;;;;;;;3.22;1.25;;;;;;;25.38;100.00;149094.44;5057467;28;20012;-79
2022/06/30 07:28:21;;;;;;;4.47;1.52;;;;;;;25.71;100.00;149176.69;5056179;28;20096;-82
2022/06/30 07:30:47;;;;;;;5.70;1.30;;;;;;;26.28;100.00;149319.47;5056398;28;20127;-80
2022/06/30 07:33:14;;;;;;;5.60;1.55;;;;;;;26.68;100.00;149419.84;5074775;28;20539;-85
2022/06/30 07:35:41;;;;;;;5.40;1.45;;;;;;;27.14;100.00;149534.34;5055761;28;20077;-81
2022/06/30 07:38:06;;;;;;;4.00;1.38;;;;;;;27.53;100.00;149632.19;5052969;28;20024;-81
2022/06/30 07:40:32;;;;;;;3.13;1.33;;;;;;;27.73;100.00;149683.69;5055342;28;20033;-79
2022/06/30 07:43:02;;;;;;;4.20;1.50;;;;;;;27.92;100.00;149731.31;5055350;28;20028;-84
2022/06/30 07:45:28;;;;;;;4.65;1.50;;;;;;;27.95;100.00;149737.78;5073998;28;20031;-85
2022/06/30 07:47:54;;;;;;;5.10;1.25;;;;;;;28.58;100.00;149894.88;5055383;28;20021;-84
2022/06/30 07:50:20;;;;;;;5.63;1.40;;;;;;;28.40;100.00;149849.78;5057097;28;20545;-83
2022/06/30 07:52:49;;;;;;;5.65;1.40;;;;;;;27.93;100.00;149733.84;5056308;28;20028;-84
2022/06/30 07:55:16;;;;;;;5.03;1.47;;;;;;;28.56;100.00;149889.75;5074850;28;20112;-85
2022/06/30 07:57:48;;;;;;;5.25;1.27;;;;;;;29.15;100.00;150039.19;5060487;28;20625;-82
2022/06/30 08:00:15;;;;;;;3.80;1.02;;;;;;;28.65;100.00;149914.25;5059535;28;20067;-82
2022/06/30 08:02:42;;;;;;;5.00;1.20;;;;;;;27.95;100.00;149737.78;5057435;28;20553;-82
2022/06/30 08:05:08;;;;;;;4.43;1.30;;;;;;;28.59;100.00;149897.53;5072480;28;20032;-82
2022/06/30 08:07:34;;;;;;;4.22;1.38;;;;;;;28.75;100.00;149937.44;5083263;28;20035;-83
2022/06/30 08:10:00;;;;;;;5.28;1.33;;;;;;;28.73;100.00;149932.25;5075655;28;20016;-82
2022/06/30 08:12:26;;;;;;;5.72;1.25;;;;;;;29.21;100.00;150052.13;5057933;28;20044;-83
2022/06/30 08:14:51;;;;;;;4.85;1.30;;;;;;;28.78;100.00;149946.44;5068035;28;20024;-83
2022/06/30 08:17:17;;;;;;;3.25;1.20;;;;;;;29.16;100.00;150041.78;5057902;28;20488;-84
2022/06/30 08:19:42;;;;;;;4.25;1.27;;;;;;;28.60;100.00;149900.06;5070363;28;20067;-81
2022/06/30 08:22:08;;;;;;;4.63;1.50;;;;;;;28.63;100.00;149909.06;5055375;28;20465;-83
2022/06/30 08:24:36;;;;;;;3.03;1.10;;;;;;;28.52;100.00;149880.72;5054052;28;20028;-82
2022/06/30 08:27:02;;;;;;;4.68;1.10;;;;;;;27.47;100.00;149616.75;5064670;28;20080;-80
2022/06/30 08:29:32;;;;;;;6.53;1.27;;;;;;;26.59;100.00;149396.66;5075870;28;20054;-79
2022/06/30 08:31:59;;;;;;;4.15;1.20;;;;;;;25.47;100.00;149116.31;5058349;28;20059;-77
2022/06/30 08:34:24;;;;;;;5.68;1.50;;;;;;;25.50;100.00;149124.03;5062553;28;20145;-79
2022/06/30 08:36:57;;;;;;;4.28;1.38;;;;;;;24.77;100.00;148941.50;5070276;28;20032;-79
2022/06/30 08:42:08;;;;;;;5.28;1.50;;;;;;;25.91;100.00;149228.09;5072621;28;20054;-81
2022/06/30 08:44:35;;;;;;;3.95;1.25;;;;;;;26.60;100.00;149399.19;5055789;28;20119;-80
2022/06/30 08:47:02;;;;;;;5.13;1.40;;;;;;;27.36;100.00;149591.03;5072805;28;20035;-83
2022/06/30 08:49:28;;;;;;;3.53;1.30;;;;;;;27.66;100.00;149665.66;5054446;28;20028;-78
2022/06/30 08:51:58;;;;;;;4.03;1.45;;;;;;;27.56;100.00;149639.91;5054177;28;20063;-82
2022/06/30 08:54:26;;;;;;;4.30;1.42;;;;;;;27.99;100.00;149746.81;5053706;28;20705;-83
2022/06/30 08:56:53;;;;;;;3.50;1.33;;;;;;;27.42;100.00;149603.88;5054165;28;20132;-81
2022/06/30 08:59:20;;;;;;;4.00;1.40;;;;;;;27.51;100.00;149628.31;5053614;28;20093;-81
2022/06/30 09:01:46;;;;;;;5.40;1.35;;;;;;;27.33;100.00;149581.97;5053079;28;20115;-81
2022/06/30 09:04:12;;;;;;;4.43;1.45;;;;;;;27.80;100.00;149699.16;5053578;28;20142;-84
2022/06/30 09:06:37;;;;;;;3.97;1.35;;;;;;;27.51;100.00;149627.06;5052678;28;20017;-80
2022/06/30 09:09:05;;;;;;;5.65;1.50;;;;;;;27.26;100.00;149565.22;5053804;28;20024;-82
2022/06/30 09:11:54;;;;;;;3.80;1.20;;;;;;;27.90;100.00;149726.13;5054366;28;20025;-83
2022/06/30 09:14:40;;;;;;;6.25;1.30;;;;;;;27.27;100.00;149567.81;5053145;28;20036;-81
2022/06/30 09:17:17;;;;;;;5.20;1.50;;;;;;;27.23;100.00;149557.50;5074662;28;20066;-82
2022/06/30 09:20:04;;;;;;;3.92;1.48;;;;;;;26.40;100.00;149350.34;5062938;28;20035;-82
2022/06/30 09:22:33;;;;;;;6.95;1.50;;;;;;;27.19;100.00;149547.19;5055557;28;20060;-81
2022/06/30 09:25:15;;;;;;;5.43;1.50;;;;;;;26.67;100.00;149417.28;5074323;28;20021;-84
2022/06/30 09:27:42;;;;;;;5.03;1.30;;;;;;;26.34;100.00;149334.91;5034761;28;20028;-80
2022/06/30 09:30:12;;;;;;;6.07;1.50;;;;;;;26.37;100.00;149342.63;5034816;28;20024;-84
2022/06/30 09:32:47;;;;;;;3.72;1.48;;;;;;;27.16;100.00;149539.47;5034308;28;20033;-82
2022/06/30 09:35:13;;;;;;;3.70;1.38;;;;;;;27.72;100.00;149681.13;5068238;28;20054;-83
2022/06/30 09:37:39;;;;;;;3.67;1.35;;;;;;;27.00;100.00;149500.91;5037878;28;20120;-81
2022/06/30 09:40:07;;;;;;;4.38;1.40;;;;;;;27.44;100.00;149610.34;5073563;28;20028;-82
2022/06/30 09:42:45;;;;;;;5.20;1.55;;;;;;;27.22;100.00;149554.91;5073138;28;20036;-82
2022/06/30 09:45:31;;;;;;;3.88;1.33;;;;;;;27.17;100.00;149542.06;5074585;28;20128;-84
2022/06/30 09:47:57;;;;;;;4.60;1.60;;;;;;;26.95;100.00;149486.75;5107132;28;20160;-82
2022/06/30 09:50:22;;;;;;;5.47;1.40;;;;;;;27.05;100.00;149513.75;5073539;28;20175;-82
2022/06/30 09:53:14;;;;;;;6.35;1.60;;;;;;;26.99;100.00;149497.06;5076587;28;20048;-81
2022/06/30 09:55:47;;;;;;;4.60;1.35;;;;;;;26.79;100.00;149448.16;5068103;28;20020;-81
2022/06/30 09:58:15;;;;;;;4.55;1.60;;;;;;;26.95;100.00;149486.75;5066370;28;20031;-77
2022/06/30 10:00:50;;;;;;;5.10;1.67;;;;;;;26.29;100.00;149322.06;5061840;28;20050;-81
2022/06/30 10:03:18;;;;;;;5.82;1.70;;;;;;;26.07;100.00;149266.72;5057723;28;20059;-82
2022/06/30 10:05:47;;;;;;;5.07;1.98;;;;;;;25.80;100.00;149199.84;5058227;28;20062;-81
2022/06/30 10:08:13;;;;;;;4.50;1.80;;;;;;;26.14;100.00;149286.03;5076077;28;20078;-82
2022/06/30 10:10:41;;;;;;;4.85;1.52;;;;;;;25.41;100.00;149102.16;5077877;28;20020;-81
2022/06/30 10:13:13;;;;;;;3.38;1.73;;;;;;;26.34;100.00;149334.91;5078815;28;20055;-82
2022/06/30 10:15:40;;;;;;;5.35;1.95;;;;;;;26.31;100.00;149328.47;5079148;28;20029;-81
2022/06/30 10:18:07;;;;;;;6.38;2.25;;;;;;;25.91;100.00;149226.84;5078744;28;20043;-79
2022/06/30 10:20:38;;;;;;;5.25;2.10;;;;;;;25.98;100.00;149246.19;5086175;28;20036;-79
2022/06/30 10:23:08;;;;;;;6.47;2.25;;;;;;;25.98;100.00;149246.19;5074135;28;20036;-81
2022/06/30 10:25:35;;;;;;;4.88;2.00;;;;;;;26.41;100.00;149352.88;5074606;28;20047;-83
2022/06/30 10:28:01;;;;;;;5.72;2.17;;;;;;;26.69;100.00;149423.72;5074050;28;20404;-77
2022/06/30 10:30:37;;;;;;;5.38;1.90;;;;;;;26.54;100.00;149383.75;5074193;28;20045;-84
2022/06/30 10:36:29;;;;;;;4.15;1.73;;;;;;;25.76;100.00;149190.84;5067928;28;20066;-82
2022/06/30 10:39:08;;;;;;;4.93;2.20;;;;;;;25.82;100.00;149203.69;5058233;28;20031;-78
2022/06/30 10:41:43;;;;;;;6.47;1.90;;;;;;;25.64;100.00;149160.00;5082727;28;20128;-79
2022/06/30 10:44:25;;;;;;;5.90;2.00;;;;;;;25.48;100.00;149118.84;5089224;28;20024;-78
2022/06/30 10:46:56;;;;;;;4.30;1.65;;;;;;;25.38;100.00;149095.72;5056225;28;20048;-82
2022/06/30 10:49:26;;;;;;;5.18;2.08;;;;;;;25.26;100.00;149064.81;5057351;28;20024;-83
2022/06/30 10:51:55;;;;;;;;;;;;;;;25.43;100.00;149108.59;5056414;28;20025;-79
2022/06/30 10:54:33;;;;;;;5.28;2.15;;;;;;;25.35;100.00;149088.00;5056565;28;19916;-81
2022/06/30 10:57:00;;;;;;;4.68;1.60;;;;;;;25.22;100.00;149054.56;5056239;28;20028;-80
2022/06/30 10:59:30;;;;;;;4.13;1.77;;;;;;;25.17;100.00;149041.69;5055341;28;20094;-76
2022/06/30 11:02:11;;;;;;;5.28;2.08;;;;;;;24.62;100.00;148905.47;5057948;28;20032;-82
2022/06/30 11:04:41;;;;;;;5.15;2.10;;;;;;;24.32;100.00;148830.94;5072034;28;20020;-82
2022/06/30 11:07:20;;;;;;;;;;;;;;;23.86;100.00;148715.34;5066527;28;20050;-81
2022/06/30 11:09:48;;;;;;;4.95;1.50;;;;;;;23.58;100.00;148644.69;5074344;28;19960;-80
2022/06/30 11:12:15;;;;;;;4.05;1.80;;;;;;;23.58;100.00;148644.69;5055899;28;20039;-80
2022/06/30 11:14:48;;;;;;;8.23;1.92;;;;;;;23.42;100.00;148604.91;5072497;28;20051;-79
2022/06/30 11:17:19;;;;;;;5.38;1.88;;;;;;;23.09;100.00;148524.03;5055133;28;20028;-78
2022/06/30 11:19:49;;;;;;;5.82;1.60;;;;;;;23.02;100.00;148504.72;5065537;28;20082;-82
2022/06/30 11:22:16;;;;;;;5.72;1.77;;;;;;;23.00;100.00;148500.88;5035781;28;20028;-82
2022/06/30 11:24:45;;;;;;;5.47;1.60;;;;;;;23.23;100.00;148558.69;5055150;28;20127;-80
2022/06/30 11:27:22;;;;;;;5.03;1.73;;;;;;;23.46;100.00;148615.16;5074372;28;20020;-81